sensor_id;sensor_type;location;lat;lon;timestamp;P1;durP1;ratioP1;P2;durP2;ratioP2
26034;SDS011;13809;48.632;11.576;2023-11-21T00:02:07;7.17;;;3.00;;
26034;SDS011;13809;48.632;11.576;2023-11-21T00:07:12;5.47;;;2.70;;
26034;SDS011;13809;48.632;11.576;2023-11-21T00:12:15;4.87;;;2.77;;
26034;SDS011;13809;48.632;11.576;2023-11-21T00:17:19;4.60;;;2.97;;
26034;SDS011;13809;48.632;11.576;2023-11-21T00:22:24;7.63;;;2.90;;
26034;SDS011;13809;48.632;11.576;2023-11-21T00:27:27;5.43;;;2.60;;
26034;SDS011;13809;48.632;11.576;2023-11-21T00:32:30;6.47;;;3.17;;
26034;SDS011;13809;48.632;11.576;2023-11-21T00:37:35;6.77;;;2.80;;
26034;SDS011;13809;48.632;11.576;2023-11-21T00:42:40;3.97;;;2.67;;
26034;SDS011;13809;48.632;11.576;2023-11-21T00:47:43;4.20;;;2.80;;
26034;SDS011;13809;48.632;11.576;2023-11-21T00:52:48;3.67;;;2.93;;
26034;SDS011;13809;48.632;11.576;2023-11-21T00:57:53;6.20;;;3.43;;
26034;SDS011;13809;48.632;11.576;2023-11-21T01:02:56;7.33;;;4.30;;
26034;SDS011;13809;48.632;11.576;2023-11-21T01:08:01;6.00;;;2.90;;
26034;SDS011;13809;48.632;11.576;2023-11-21T01:13:04;4.20;;;2.67;;
26034;SDS011;13809;48.632;11.576;2023-11-21T01:18:08;4.90;;;2.47;;
26034;SDS011;13809;48.632;11.576;2023-11-21T01:23:13;9.37;;;4.90;;
26034;SDS011;13809;48.632;11.576;2023-11-21T01:28:16;5.97;;;3.50;;
26034;SDS011;13809;48.632;11.576;2023-11-21T01:33:19;5.63;;;3.50;;
26034;SDS011;13809;48.632;11.576;2023-11-21T01:38:24;12.17;;;7.57;;
26034;SDS011;13809;48.632;11.576;2023-11-21T01:43:27;10.07;;;6.10;;
26034;SDS011;13809;48.632;11.576;2023-11-21T01:48:31;7.33;;;4.07;;
26034;SDS011;13809;48.632;11.576;2023-11-21T01:53:37;5.27;;;2.80;;
26034;SDS011;13809;48.632;11.576;2023-11-21T01:58:42;3.90;;;2.43;;
26034;SDS011;13809;48.632;11.576;2023-11-21T02:03:48;4.33;;;2.40;;
26034;SDS011;13809;48.632;11.576;2023-11-21T02:08:53;4.03;;;2.40;;
26034;SDS011;13809;48.632;11.576;2023-11-21T02:13:56;3.80;;;2.40;;
26034;SDS011;13809;48.632;11.576;2023-11-21T02:19:02;5.73;;;2.97;;
26034;SDS011;13809;48.632;11.576;2023-11-21T02:24:09;4.63;;;2.60;;
26034;SDS011;13809;48.632;11.576;2023-11-21T02:29:14;3.47;;;2.63;;
26034;SDS011;13809;48.632;11.576;2023-11-21T02:34:20;4.00;;;1.90;;
26034;SDS011;13809;48.632;11.576;2023-11-21T02:39:26;4.73;;;2.30;;
26034;SDS011;13809;48.632;11.576;2023-11-21T02:44:29;5.90;;;2.40;;
26034;SDS011;13809;48.632;11.576;2023-11-21T02:49:33;4.67;;;2.40;;
26034;SDS011;13809;48.632;11.576;2023-11-21T02:54:38;3.17;;;2.20;;
26034;SDS011;13809;48.632;11.576;2023-11-21T02:59:41;2.57;;;2.27;;
26034;SDS011;13809;48.632;11.576;2023-11-21T03:04:44;5.30;;;2.67;;
26034;SDS011;13809;48.632;11.576;2023-11-21T03:09:50;5.40;;;3.30;;
26034;SDS011;13809;48.632;11.576;2023-11-21T03:14:54;3.77;;;2.33;;
26034;SDS011;13809;48.632;11.576;2023-11-21T03:19:57;4.17;;;2.40;;
26034;SDS011;13809;48.632;11.576;2023-11-21T03:25:02;5.03;;;2.43;;
26034;SDS011;13809;48.632;11.576;2023-11-21T03:30:07;5.20;;;2.27;;
26034;SDS011;13809;48.632;11.576;2023-11-21T03:35:12;4.63;;;2.33;;
26034;SDS011;13809;48.632;11.576;2023-11-21T03:40:17;3.67;;;2.13;;
26034;SDS011;13809;48.632;11.576;2023-11-21T03:45:22;3.00;;;1.80;;
26034;SDS011;13809;48.632;11.576;2023-11-21T03:50:25;3.27;;;2.17;;
26034;SDS011;13809;48.632;11.576;2023-11-21T03:55:30;4.77;;;1.90;;
26034;SDS011;13809;48.632;11.576;2023-11-21T04:00:33;2.97;;;1.97;;
26034;SDS011;13809;48.632;11.576;2023-11-21T04:05:36;2.53;;;2.03;;
26034;SDS011;13809;48.632;11.576;2023-11-21T04:10:41;2.83;;;2.50;;
26034;SDS011;13809;48.632;11.576;2023-11-21T04:15:44;2.70;;;1.93;;
26034;SDS011;13809;48.632;11.576;2023-11-21T04:20:48;3.83;;;2.00;;
26034;SDS011;13809;48.632;11.576;2023-11-21T04:25:53;3.67;;;2.23;;
26034;SDS011;13809;48.632;11.576;2023-11-21T04:30:58;4.77;;;2.20;;
26034;SDS011;13809;48.632;11.576;2023-11-21T04:36:01;2.80;;;2.20;;
26034;SDS011;13809;48.632;11.576;2023-11-21T04:41:07;4.20;;;2.10;;
26034;SDS011;13809;48.632;11.576;2023-11-21T04:46:10;3.37;;;2.00;;
26034;SDS011;13809;48.632;11.576;2023-11-21T04:51:13;3.20;;;1.70;;
26034;SDS011;13809;48.632;11.576;2023-11-21T04:56:18;2.60;;;2.20;;
26034;SDS011;13809;48.632;11.576;2023-11-21T05:01:21;3.87;;;2.10;;
26034;SDS011;13809;48.632;11.576;2023-11-21T05:06:25;3.70;;;1.80;;
26034;SDS011;13809;48.632;11.576;2023-11-21T05:11:29;2.97;;;2.40;;
26034;SDS011;13809;48.632;11.576;2023-11-21T05:16:33;4.40;;;3.40;;
26034;SDS011;13809;48.632;11.576;2023-11-21T05:21:36;4.37;;;3.13;;
26034;SDS011;13809;48.632;11.576;2023-11-21T05:26:41;6.13;;;3.43;;
26034;SDS011;13809;48.632;11.576;2023-11-21T05:31:44;5.77;;;3.67;;
26034;SDS011;13809;48.632;11.576;2023-11-21T05:36:48;4.20;;;3.67;;
26034;SDS011;13809;48.632;11.576;2023-11-21T05:41:52;5.20;;;3.50;;
26034;SDS011;13809;48.632;11.576;2023-11-21T05:46:55;4.67;;;3.17;;
26034;SDS011;13809;48.632;11.576;2023-11-21T05:52:00;4.63;;;2.90;;
26034;SDS011;13809;48.632;11.576;2023-11-21T05:57:05;5.10;;;1.90;;
26034;SDS011;13809;48.632;11.576;2023-11-21T06:02:08;3.40;;;1.83;;
26034;SDS011;13809;48.632;11.576;2023-11-21T06:07:12;3.20;;;1.90;;
26034;SDS011;13809;48.632;11.576;2023-11-21T06:12:17;4.43;;;1.80;;
26034;SDS011;13809;48.632;11.576;2023-11-21T06:17:21;5.73;;;1.97;;
26034;SDS011;13809;48.632;11.576;2023-11-21T06:22:26;4.10;;;1.87;;
26034;SDS011;13809;48.632;11.576;2023-11-21T06:27:33;3.00;;;2.00;;
26034;SDS011;13809;48.632;11.576;2023-11-21T06:32:38;3.20;;;1.80;;
26034;SDS011;13809;48.632;11.576;2023-11-21T06:37:42;2.67;;;1.70;;
26034;SDS011;13809;48.632;11.576;2023-11-21T06:42:52;4.57;;;2.50;;
26034;SDS011;13809;48.632;11.576;2023-11-21T06:47:56;3.77;;;2.60;;
26034;SDS011;13809;48.632;11.576;2023-11-21T06:52:59;2.80;;;2.07;;
26034;SDS011;13809;48.632;11.576;2023-11-21T06:58:06;7.13;;;4.40;;
26034;SDS011;13809;48.632;11.576;2023-11-21T07:03:10;5.70;;;2.60;;
26034;SDS011;13809;48.632;11.576;2023-11-21T07:08:13;4.17;;;1.83;;
26034;SDS011;13809;48.632;11.576;2023-11-21T07:13:17;2.47;;;1.90;;
26034;SDS011;13809;48.632;11.576;2023-11-21T07:18:20;4.30;;;1.90;;
26034;SDS011;13809;48.632;11.576;2023-11-21T07:23:24;3.03;;;2.20;;
26034;SDS011;13809;48.632;11.576;2023-11-21T07:28:29;3.87;;;2.40;;
26034;SDS011;13809;48.632;11.576;2023-11-21T07:33:32;3.20;;;2.63;;
26034;SDS011;13809;48.632;11.576;2023-11-21T07:38:35;3.80;;;2.23;;
26034;SDS011;13809;48.632;11.576;2023-11-21T07:43:40;5.37;;;2.57;;
26034;SDS011;13809;48.632;11.576;2023-11-21T07:48:43;2.77;;;2.00;;
26034;SDS011;13809;48.632;11.576;2023-11-21T07:53:47;4.23;;;2.30;;
26034;SDS011;13809;48.632;11.576;2023-11-21T07:58:52;5.17;;;2.00;;
26034;SDS011;13809;48.632;11.576;2023-11-21T08:03:56;3.17;;;1.83;;
26034;SDS011;13809;48.632;11.576;2023-11-21T08:09:03;3.20;;;1.80;;
26034;SDS011;13809;48.632;11.576;2023-11-21T08:14:08;3.97;;;2.17;;
26034;SDS011;13809;48.632;11.576;2023-11-21T08:19:11;3.20;;;2.17;;
26034;SDS011;13809;48.632;11.576;2023-11-21T08:24:14;2.13;;;1.57;;
26034;SDS011;13809;48.632;11.576;2023-11-21T08:29:18;3.73;;;1.80;;
26034;SDS011;13809;48.632;11.576;2023-11-21T08:34:22;3.23;;;1.90;;
26034;SDS011;13809;48.632;11.576;2023-11-21T08:39:25;4.03;;;1.80;;
26034;SDS011;13809;48.632;11.576;2023-11-21T08:44:30;2.57;;;2.03;;
26034;SDS011;13809;48.632;11.576;2023-11-21T08:49:33;2.93;;;2.03;;
26034;SDS011;13809;48.632;11.576;2023-11-21T08:54:36;6.27;;;2.60;;
26034;SDS011;13809;48.632;11.576;2023-11-21T08:59:41;2.63;;;2.00;;
26034;SDS011;13809;48.632;11.576;2023-11-21T09:04:44;3.73;;;2.00;;
26034;SDS011;13809;48.632;11.576;2023-11-21T09:09:48;2.90;;;2.00;;
26034;SDS011;13809;48.632;11.576;2023-11-21T09:14:53;4.03;;;1.80;;
26034;SDS011;13809;48.632;11.576;2023-11-21T09:19:56;3.27;;;2.10;;
26034;SDS011;13809;48.632;11.576;2023-11-21T09:24:59;3.47;;;2.67;;
26034;SDS011;13809;48.632;11.576;2023-11-21T09:30:08;3.30;;;2.00;;
26034;SDS011;13809;48.632;11.576;2023-11-21T09:35:12;2.33;;;2.00;;
26034;SDS011;13809;48.632;11.576;2023-11-21T09:40:17;2.63;;;1.60;;
26034;SDS011;13809;48.632;11.576;2023-11-21T09:45:26;3.27;;;1.80;;
26034;SDS011;13809;48.632;11.576;2023-11-21T09:50:30;2.97;;;2.30;;
26034;SDS011;13809;48.632;11.576;2023-11-21T09:55:35;2.40;;;2.07;;
26034;SDS011;13809;48.632;11.576;2023-11-21T10:00:41;2.50;;;2.00;;
26034;SDS011;13809;48.632;11.576;2023-11-21T10:05:45;3.00;;;2.10;;
26034;SDS011;13809;48.632;11.576;2023-11-21T10:10:53;3.10;;;2.00;;
26034;SDS011;13809;48.632;11.576;2023-11-21T10:15:58;3.63;;;1.97;;
26034;SDS011;13809;48.632;11.576;2023-11-21T10:21:05;3.40;;;1.83;;
26034;SDS011;13809;48.632;11.576;2023-11-21T10:26:08;3.60;;;1.77;;
26034;SDS011;13809;48.632;11.576;2023-11-21T10:31:33;2.87;;;1.90;;
26034;SDS011;13809;48.632;11.576;2023-11-21T10:36:37;3.30;;;1.90;;
26034;SDS011;13809;48.632;11.576;2023-11-21T10:41:40;3.17;;;2.00;;
26034;SDS011;13809;48.632;11.576;2023-11-21T10:46:45;3.00;;;1.93;;
26034;SDS011;13809;48.632;11.576;2023-11-21T10:51:52;2.97;;;2.00;;
26034;SDS011;13809;48.632;11.576;2023-11-21T10:56:56;2.23;;;1.90;;
26034;SDS011;13809;48.632;11.576;2023-11-21T11:02:04;3.60;;;1.90;;
26034;SDS011;13809;48.632;11.576;2023-11-21T11:07:17;3.23;;;2.07;;
26034;SDS011;13809;48.632;11.576;2023-11-21T11:12:23;3.77;;;2.20;;
26034;SDS011;13809;48.632;11.576;2023-11-21T11:17:29;2.37;;;2.13;;
26034;SDS011;13809;48.632;11.576;2023-11-21T11:22:36;3.40;;;2.30;;
26034;SDS011;13809;48.632;11.576;2023-11-21T11:27:45;2.87;;;2.10;;
26034;SDS011;13809;48.632;11.576;2023-11-21T11:32:58;2.10;;;1.90;;
26034;SDS011;13809;48.632;11.576;2023-11-21T11:38:13;2.70;;;2.00;;
26034;SDS011;13809;48.632;11.576;2023-11-21T11:43:24;2.70;;;2.50;;
26034;SDS011;13809;48.632;11.576;2023-11-21T11:48:29;3.10;;;2.60;;
26034;SDS011;13809;48.632;11.576;2023-11-21T11:53:33;2.60;;;2.40;;
26034;SDS011;13809;48.632;11.576;2023-11-21T11:58:40;2.67;;;2.30;;
26034;SDS011;13809;48.632;11.576;2023-11-21T12:03:45;3.00;;;2.40;;
26034;SDS011;13809;48.632;11.576;2023-11-21T12:09:33;3.87;;;2.47;;
26034;SDS011;13809;48.632;11.576;2023-11-21T12:14:36;2.10;;;1.90;;
26034;SDS011;13809;48.632;11.576;2023-11-21T12:19:41;2.43;;;1.80;;
26034;SDS011;13809;48.632;11.576;2023-11-21T12:24:45;2.20;;;2.00;;
26034;SDS011;13809;48.632;11.576;2023-11-21T12:29:48;1.90;;;1.80;;
26034;SDS011;13809;48.632;11.576;2023-11-21T12:34:52;5.77;;;4.67;;
26034;SDS011;13809;48.632;11.576;2023-11-21T12:39:56;3.03;;;2.57;;
26034;SDS011;13809;48.632;11.576;2023-11-21T12:45:09;2.60;;;2.13;;
26034;SDS011;13809;48.632;11.576;2023-11-21T12:50:23;3.70;;;3.40;;
26034;SDS011;13809;48.632;11.576;2023-11-21T12:55:31;3.17;;;2.90;;
26034;SDS011;13809;48.632;11.576;2023-11-21T13:00:40;3.20;;;2.90;;
26034;SDS011;13809;48.632;11.576;2023-11-21T13:05:46;6.90;;;6.30;;
26034;SDS011;13809;48.632;11.576;2023-11-21T13:10:54;3.20;;;2.60;;
26034;SDS011;13809;48.632;11.576;2023-11-21T13:16:00;2.87;;;2.67;;
26034;SDS011;13809;48.632;11.576;2023-11-21T13:21:08;4.00;;;1.87;;
26034;SDS011;13809;48.632;11.576;2023-11-21T13:26:15;1.77;;;1.67;;
26034;SDS011;13809;48.632;11.576;2023-11-21T13:31:18;1.60;;;1.50;;
26034;SDS011;13809;48.632;11.576;2023-11-21T13:36:29;1.70;;;1.50;;
26034;SDS011;13809;48.632;11.576;2023-11-21T13:41:34;2.23;;;1.50;;
26034;SDS011;13809;48.632;11.576;2023-11-21T13:46:40;2.43;;;2.23;;
26034;SDS011;13809;48.632;11.576;2023-11-21T13:51:45;2.10;;;1.70;;
26034;SDS011;13809;48.632;11.576;2023-11-21T13:56:52;2.70;;;1.80;;
26034;SDS011;13809;48.632;11.576;2023-11-21T14:01:56;1.77;;;1.67;;
26034;SDS011;13809;48.632;11.576;2023-11-21T14:07:03;2.67;;;1.53;;
26034;SDS011;13809;48.632;11.576;2023-11-21T14:12:22;2.27;;;1.60;;
26034;SDS011;13809;48.632;11.576;2023-11-21T14:17:25;1.80;;;1.43;;
26034;SDS011;13809;48.632;11.576;2023-11-21T14:22:30;1.60;;;1.50;;
26034;SDS011;13809;48.632;11.576;2023-11-21T14:27:33;2.23;;;1.70;;
26034;SDS011;13809;48.632;11.576;2023-11-21T14:32:37;2.57;;;1.50;;
26034;SDS011;13809;48.632;11.576;2023-11-21T14:37:42;1.60;;;1.50;;
26034;SDS011;13809;48.632;11.576;2023-11-21T14:42:46;3.30;;;2.30;;
26034;SDS011;13809;48.632;11.576;2023-11-21T14:47:49;6.17;;;5.47;;
26034;SDS011;13809;48.632;11.576;2023-11-21T14:53:01;2.40;;;2.20;;
26034;SDS011;13809;48.632;11.576;2023-11-21T14:58:07;4.37;;;3.70;;
26034;SDS011;13809;48.632;11.576;2023-11-21T15:03:14;2.80;;;2.60;;
26034;SDS011;13809;48.632;11.576;2023-11-21T15:08:40;2.37;;;2.17;;
26034;SDS011;13809;48.632;11.576;2023-11-21T15:13:44;3.23;;;2.97;;
26034;SDS011;13809;48.632;11.576;2023-11-21T15:18:50;3.20;;;2.90;;
26034;SDS011;13809;48.632;11.576;2023-11-21T15:23:54;3.87;;;3.10;;
26034;SDS011;13809;48.632;11.576;2023-11-21T15:28:57;3.10;;;2.80;;
26034;SDS011;13809;48.632;11.576;2023-11-21T15:34:00;3.20;;;2.97;;
26034;SDS011;13809;48.632;11.576;2023-11-21T15:39:07;4.87;;;4.37;;
26034;SDS011;13809;48.632;11.576;2023-11-21T15:44:11;6.10;;;5.60;;
26034;SDS011;13809;48.632;11.576;2023-11-21T15:49:15;5.87;;;4.63;;
26034;SDS011;13809;48.632;11.576;2023-11-21T15:54:24;5.30;;;4.87;;
26034;SDS011;13809;48.632;11.576;2023-11-21T15:59:29;4.77;;;3.97;;
26034;SDS011;13809;48.632;11.576;2023-11-21T16:04:33;3.80;;;3.40;;
26034;SDS011;13809;48.632;11.576;2023-11-21T16:09:39;3.70;;;3.40;;
26034;SDS011;13809;48.632;11.576;2023-11-21T16:14:44;3.23;;;3.03;;
26034;SDS011;13809;48.632;11.576;2023-11-21T16:19:49;3.20;;;3.00;;
26034;SDS011;13809;48.632;11.576;2023-11-21T16:24:55;12.90;;;11.60;;
26034;SDS011;13809;48.632;11.576;2023-11-21T16:29:58;5.13;;;4.73;;
26034;SDS011;13809;48.632;11.576;2023-11-21T16:35:01;5.20;;;4.70;;
26034;SDS011;13809;48.632;11.576;2023-11-21T16:40:06;4.80;;;4.40;;
26034;SDS011;13809;48.632;11.576;2023-11-21T16:45:11;4.90;;;4.50;;
26034;SDS011;13809;48.632;11.576;2023-11-21T16:50:14;4.90;;;4.50;;
26034;SDS011;13809;48.632;11.576;2023-11-21T16:55:19;4.40;;;4.00;;
26034;SDS011;13809;48.632;11.576;2023-11-21T17:00:22;4.20;;;3.90;;
26034;SDS011;13809;48.632;11.576;2023-11-21T17:05:25;4.30;;;3.90;;
26034;SDS011;13809;48.632;11.576;2023-11-21T17:10:29;4.10;;;3.70;;
26034;SDS011;13809;48.632;11.576;2023-11-21T17:15:32;4.87;;;4.37;;
26034;SDS011;13809;48.632;11.576;2023-11-21T17:20:36;3.87;;;3.50;;
26034;SDS011;13809;48.632;11.576;2023-11-21T17:25:40;4.17;;;3.77;;
26034;SDS011;13809;48.632;11.576;2023-11-21T17:30:44;5.73;;;3.93;;
26034;SDS011;13809;48.632;11.576;2023-11-21T17:35:47;4.93;;;4.43;;
26034;SDS011;13809;48.632;11.576;2023-11-21T17:40:51;4.13;;;3.83;;
26034;SDS011;13809;48.632;11.576;2023-11-21T17:45:55;3.57;;;3.20;;
26034;SDS011;13809;48.632;11.576;2023-11-21T17:50:59;2.80;;;2.60;;
26034;SDS011;13809;48.632;11.576;2023-11-21T17:56:04;2.47;;;2.27;;
26034;SDS011;13809;48.632;11.576;2023-11-21T18:01:07;2.53;;;1.70;;
26034;SDS011;13809;48.632;11.576;2023-11-21T18:06:13;2.50;;;1.70;;
26034;SDS011;13809;48.632;11.576;2023-11-21T18:11:17;2.00;;;1.90;;
26034;SDS011;13809;48.632;11.576;2023-11-21T18:16:21;2.50;;;1.63;;
26034;SDS011;13809;48.632;11.576;2023-11-21T18:21:24;2.17;;;1.70;;
26034;SDS011;13809;48.632;11.576;2023-11-21T18:26:28;1.60;;;1.50;;
26034;SDS011;13809;48.632;11.576;2023-11-21T18:31:32;1.60;;;1.50;;
26034;SDS011;13809;48.632;11.576;2023-11-21T18:36:35;1.60;;;1.50;;
26034;SDS011;13809;48.632;11.576;2023-11-21T18:41:39;1.70;;;1.60;;
26034;SDS011;13809;48.632;11.576;2023-11-21T18:46:43;1.60;;;1.50;;
26034;SDS011;13809;48.632;11.576;2023-11-21T18:51:46;1.60;;;1.50;;
26034;SDS011;13809;48.632;11.576;2023-11-21T18:56:52;1.60;;;1.30;;
26034;SDS011;13809;48.632;11.576;2023-11-21T19:01:56;1.40;;;1.30;;
26034;SDS011;13809;48.632;11.576;2023-11-21T19:06:59;3.33;;;1.70;;
26034;SDS011;13809;48.632;11.576;2023-11-21T19:12:05;2.10;;;1.70;;
26034;SDS011;13809;48.632;11.576;2023-11-21T19:17:09;1.97;;;1.50;;
26034;SDS011;13809;48.632;11.576;2023-11-21T19:22:12;1.97;;;1.73;;
26034;SDS011;13809;48.632;11.576;2023-11-21T19:27:17;2.00;;;1.83;;
26034;SDS011;13809;48.632;11.576;2023-11-21T19:32:21;1.93;;;1.80;;
26034;SDS011;13809;48.632;11.576;2023-11-21T19:37:25;2.20;;;2.00;;
26034;SDS011;13809;48.632;11.576;2023-11-21T19:42:30;3.17;;;2.17;;
26034;SDS011;13809;48.632;11.576;2023-11-21T19:47:35;2.80;;;2.60;;
26034;SDS011;13809;48.632;11.576;2023-11-21T19:52:40;2.17;;;2.00;;
26034;SDS011;13809;48.632;11.576;2023-11-21T19:57:45;2.40;;;2.20;;
26034;SDS011;13809;48.632;11.576;2023-11-21T20:02:48;2.63;;;2.43;;
26034;SDS011;13809;48.632;11.576;2023-11-21T20:07:52;2.90;;;2.60;;
26034;SDS011;13809;48.632;11.576;2023-11-21T20:12:56;2.80;;;2.50;;
26034;SDS011;13809;48.632;11.576;2023-11-21T20:18:02;2.50;;;2.30;;
26034;SDS011;13809;48.632;11.576;2023-11-21T20:23:05;3.87;;;2.90;;
26034;SDS011;13809;48.632;11.576;2023-11-21T20:28:10;3.57;;;2.83;;
26034;SDS011;13809;48.632;11.576;2023-11-21T20:33:14;3.40;;;3.03;;
26034;SDS011;13809;48.632;11.576;2023-11-21T20:38:18;4.10;;;2.90;;
26034;SDS011;13809;48.632;11.576;2023-11-21T20:43:23;3.47;;;3.17;;
26034;SDS011;13809;48.632;11.576;2023-11-21T20:48:27;5.30;;;3.40;;
26034;SDS011;13809;48.632;11.576;2023-11-21T20:53:30;4.40;;;3.47;;
26034;SDS011;13809;48.632;11.576;2023-11-21T20:58:35;3.33;;;2.97;;
26034;SDS011;13809;48.632;11.576;2023-11-21T21:03:39;4.90;;;3.43;;
26034;SDS011;13809;48.632;11.576;2023-11-21T21:08:42;4.20;;;3.73;;
26034;SDS011;13809;48.632;11.576;2023-11-21T21:13:47;3.83;;;3.53;;
26034;SDS011;13809;48.632;11.576;2023-11-21T21:18:54;3.37;;;3.07;;
26034;SDS011;13809;48.632;11.576;2023-11-21T21:24:00;3.87;;;3.47;;
26034;SDS011;13809;48.632;11.576;2023-11-21T21:29:04;4.23;;;3.40;;
26034;SDS011;13809;48.632;11.576;2023-11-21T21:34:10;3.23;;;2.90;;
26034;SDS011;13809;48.632;11.576;2023-11-21T21:39:14;3.30;;;2.83;;
26034;SDS011;13809;48.632;11.576;2023-11-21T21:44:20;3.37;;;3.07;;
26034;SDS011;13809;48.632;11.576;2023-11-21T21:49:24;4.80;;;2.70;;
26034;SDS011;13809;48.632;11.576;2023-11-21T21:54:27;3.30;;;3.00;;
26034;SDS011;13809;48.632;11.576;2023-11-21T21:59:32;3.20;;;2.90;;
26034;SDS011;13809;48.632;11.576;2023-11-21T22:04:35;4.33;;;3.13;;
26034;SDS011;13809;48.632;11.576;2023-11-21T22:09:41;3.77;;;3.47;;
26034;SDS011;13809;48.632;11.576;2023-11-21T22:14:45;4.50;;;4.20;;
26034;SDS011;13809;48.632;11.576;2023-11-21T22:19:48;5.30;;;4.40;;
26034;SDS011;13809;48.632;11.576;2023-11-21T22:24:53;4.70;;;3.90;;
26034;SDS011;13809;48.632;11.576;2023-11-21T22:29:58;3.87;;;3.57;;
26034;SDS011;13809;48.632;11.576;2023-11-21T22:35:01;3.60;;;3.30;;
26034;SDS011;13809;48.632;11.576;2023-11-21T22:40:05;3.70;;;3.40;;
26034;SDS011;13809;48.632;11.576;2023-11-21T22:45:11;4.30;;;3.80;;
26034;SDS011;13809;48.632;11.576;2023-11-21T22:50:14;4.47;;;3.60;;
26034;SDS011;13809;48.632;11.576;2023-11-21T22:55:17;4.90;;;4.30;;
26034;SDS011;13809;48.632;11.576;2023-11-21T23:00:22;4.67;;;4.00;;
26034;SDS011;13809;48.632;11.576;2023-11-21T23:05:31;4.80;;;4.30;;
26034;SDS011;13809;48.632;11.576;2023-11-21T23:10:34;6.83;;;3.80;;
26034;SDS011;13809;48.632;11.576;2023-11-21T23:15:40;5.17;;;3.80;;
26034;SDS011;13809;48.632;11.576;2023-11-21T23:20:48;4.00;;;3.60;;
26034;SDS011;13809;48.632;11.576;2023-11-21T23:25:51;3.77;;;3.00;;
26034;SDS011;13809;48.632;11.576;2023-11-21T23:30:57;3.73;;;3.43;;
26034;SDS011;13809;48.632;11.576;2023-11-21T23:36:01;3.50;;;2.83;;
26034;SDS011;13809;48.632;11.576;2023-11-21T23:41:04;3.13;;;2.90;;
26034;SDS011;13809;48.632;11.576;2023-11-21T23:46:08;2.77;;;2.50;;
26034;SDS011;13809;48.632;11.576;2023-11-21T23:51:12;2.47;;;2.20;;
26034;SDS011;13809;48.632;11.576;2023-11-21T23:56:15;2.30;;;2.10;;
